Vernon, Idaho
Current Conditions -  °F | °C
As of 4:56 AM on Sunday 25 Jan 2015 (Local Time) from KDIJ Reporting Station
Haze Haze  
Wind Chill: 21°   Ceiling: 900
Heat Index: 26°   Visibility: 6mi
Dew Point: 26°   Wind: 5mph
Humidity: 100%   Direction: 340°NNW
Pressure: 30.41"   Gusts: NA
Location:  43.6065°N, 111.138°W
Report Text: KDIJ 251156Z AUTO 34004KT 6SM BR OVC009 M03/M03 A3041 RMK AO2 57001 60000 T10331033 11022 21038 CIG 007V012 UPB17E36SNE03 P0000 SLP315
Loading
Personal Weather Stations






























Interactive Weather Map New forecast layout! Learn more

10-Day Weather Forecast

Advertisements
Track Severe Weather on mobile